createdAt,value
2017-10-05T00:01:54.509Z,84.30
2017-10-05T00:04:22.829Z,84.60
2017-10-05T00:06:51.148Z,84.60
2017-10-05T00:09:19.514Z,84.80
2017-10-05T00:11:48.582Z,84.90
2017-10-05T00:14:16.890Z,84.90
2017-10-05T00:16:45.990Z,85.00
2017-10-05T00:19:15.073Z,85.10
2017-10-05T00:21:43.387Z,85.10
2017-10-05T00:24:11.704Z,85.70
2017-10-05T00:26:40.030Z,85.50
2017-10-05T00:29:09.129Z,85.70
2017-10-05T00:31:38.269Z,85.70
2017-10-05T00:34:06.648Z,85.60
2017-10-05T00:36:34.964Z,85.90
2017-10-05T00:39:03.299Z,85.80
2017-10-05T00:41:31.591Z,85.90
2017-10-05T00:43:59.904Z,86.00
2017-10-05T00:46:29.724Z,86.40
2017-10-05T00:48:59.560Z,86.50
2017-10-05T00:51:28.627Z,86.60
2017-10-05T00:53:57.026Z,86.60
2017-10-05T00:56:25.474Z,86.90
2017-10-05T00:58:53.779Z,87.00
2017-10-05T01:01:22.104Z,87.20
2017-10-05T01:03:50.410Z,88.00
2017-10-05T01:06:18.716Z,87.40
2017-10-05T01:08:47.044Z,87.50
2017-10-05T01:11:16.109Z,87.80
2017-10-05T01:13:44.408Z,87.70
2017-10-05T01:16:13.494Z,87.70
2017-10-05T01:18:41.804Z,87.70
2017-10-05T01:21:10.868Z,87.80
2017-10-05T01:23:39.200Z,87.90
2017-10-05T01:26:07.508Z,88.70
2017-10-05T01:28:35.852Z,88.00
2017-10-05T01:31:04.186Z,88.00
2017-10-05T01:33:32.495Z,88.10
2017-10-05T01:36:01.621Z,88.30
2017-10-05T01:38:29.963Z,88.30
2017-10-05T01:40:59.082Z,89.00
2017-10-05T01:43:28.227Z,88.50
2017-10-05T01:45:57.254Z,88.50
2017-10-05T01:48:25.699Z,88.60
2017-10-05T01:50:54.020Z,88.80
2017-10-05T01:53:22.332Z,89.10
2017-10-05T01:55:50.668Z,88.90
2017-10-05T01:58:18.968Z,89.20
2017-10-05T02:00:47.276Z,89.30
2017-10-05T02:03:15.612Z,89.40
2017-10-05T02:05:43.921Z,89.50
2017-10-05T02:08:13.008Z,90.20
2017-10-05T02:10:41.320Z,89.80
2017-10-05T02:13:09.636Z,89.90
2017-10-05T02:15:38.758Z,89.90
2017-10-05T02:18:07.055Z,90.00
2017-10-05T02:20:36.152Z,90.00
2017-10-05T02:23:05.244Z,90.10
2017-10-05T02:25:33.625Z,90.10
2017-10-05T02:28:02.650Z,90.10
2017-10-05T02:30:30.960Z,90.10
2017-10-05T02:32:59.296Z,90.20
2017-10-05T02:35:28.367Z,90.20
2017-10-05T02:37:56.666Z,90.30
2017-10-05T02:40:25.754Z,90.40
2017-10-05T02:42:54.091Z,90.40
2017-10-05T02:45:22.444Z,90.40
2017-10-05T02:47:51.524Z,90.50
2017-10-05T02:50:19.840Z,90.50
2017-10-05T02:52:48.263Z,90.90
2017-10-05T02:55:17.287Z,90.60
2017-10-05T02:57:46.365Z,90.60
2017-10-05T03:00:14.679Z,90.60
2017-10-05T03:02:43.748Z,90.70
2017-10-05T03:05:12.101Z,90.70
2017-10-05T03:07:40.412Z,90.70
2017-10-05T03:10:08.729Z,90.70
2017-10-05T03:12:37.062Z,90.80
2017-10-05T03:15:05.390Z,90.80
2017-10-05T03:17:34.478Z,90.80
2017-10-05T03:20:03.603Z,90.90
2017-10-05T03:22:32.064Z,90.90
2017-10-05T03:25:01.160Z,90.90
2017-10-05T03:27:30.379Z,90.90
2017-10-05T03:29:58.762Z,90.90
2017-10-05T03:32:27.099Z,90.90
2017-10-05T03:34:55.425Z,90.90
2017-10-05T03:37:23.735Z,91.00
2017-10-05T03:39:52.039Z,91.00
2017-10-05T03:42:20.487Z,91.00
2017-10-05T03:44:48.819Z,91.00
2017-10-05T03:47:17.109Z,91.00
2017-10-05T03:49:46.174Z,91.00
2017-10-05T03:52:14.489Z,91.00
2017-10-05T03:54:43.558Z,91.10
2017-10-05T03:57:11.955Z,91.10
2017-10-05T03:59:40.247Z,91.10
2017-10-05T04:02:09.317Z,91.20
2017-10-05T04:04:37.649Z,91.20
2017-10-05T04:07:05.947Z,91.20
2017-10-05T04:09:34.293Z,91.20
2017-10-05T04:12:03.473Z,91.30
2017-10-05T04:14:32.571Z,91.60
2017-10-05T04:17:00.869Z,91.30
2017-10-05T04:19:29.208Z,91.30
2017-10-05T04:21:57.529Z,91.30
2017-10-05T04:24:26.608Z,91.30
2017-10-05T04:26:54.940Z,91.30
2017-10-05T04:29:23.234Z,91.30
2017-10-05T04:31:51.607Z,91.30
2017-10-05T04:34:19.916Z,91.30
2017-10-05T04:36:48.243Z,91.30
2017-10-05T04:39:17.372Z,91.40
2017-10-05T04:41:45.676Z,91.40
2017-10-05T04:44:13.988Z,91.40
2017-10-05T04:46:42.400Z,91.40
2017-10-05T04:49:10.703Z,91.50
2017-10-05T04:51:39.024Z,91.50
2017-10-05T04:54:07.483Z,91.50
2017-10-05T04:56:35.912Z,91.60
2017-10-05T04:59:04.991Z,91.60
2017-10-05T05:01:33.290Z,91.60
2017-10-05T05:04:02.564Z,91.70
2017-10-05T05:06:30.879Z,91.60
2017-10-05T05:08:59.957Z,91.70
2017-10-05T05:11:28.268Z,91.70
2017-10-05T05:13:56.599Z,91.70
2017-10-05T05:16:24.931Z,91.70
2017-10-05T05:18:53.265Z,91.80
2017-10-05T05:21:21.577Z,91.80
2017-10-05T05:23:50.664Z,91.90
2017-10-05T05:26:18.993Z,91.90
2017-10-05T05:28:47.292Z,91.90
2017-10-05T05:31:15.604Z,92.00
2017-10-05T05:33:43.944Z,92.00
2017-10-05T05:36:12.252Z,92.00
2017-10-05T05:38:40.560Z,92.00
2017-10-05T05:41:09.622Z,92.10
2017-10-05T05:43:37.967Z,92.10
2017-10-05T05:46:06.421Z,92.10
2017-10-05T05:48:35.672Z,92.40
2017-10-05T05:51:04.110Z,92.50
2017-10-05T05:53:33.174Z,92.10
2017-10-05T05:56:01.504Z,92.20
2017-10-05T05:58:29.826Z,92.20
2017-10-05T06:00:58.324Z,92.20
2017-10-05T06:03:26.636Z,92.20
2017-10-05T06:05:55.714Z,92.20
2017-10-05T06:08:24.046Z,92.20
2017-10-05T06:10:52.360Z,92.20
2017-10-05T06:13:20.675Z,92.20
2017-10-05T06:15:48.996Z,92.10
2017-10-05T06:18:17.314Z,92.10
2017-10-05T06:20:45.879Z,92.00
2017-10-05T06:23:14.204Z,92.00
2017-10-05T06:25:42.524Z,91.90
2017-10-05T06:28:10.851Z,91.80
2017-10-05T06:30:39.184Z,91.70
2017-10-05T06:33:07.501Z,91.70
2017-10-05T06:35:35.820Z,91.60
2017-10-05T06:38:04.892Z,91.20
2017-10-05T06:40:33.296Z,91.30
2017-10-05T06:43:02.389Z,91.00
2017-10-05T06:45:31.473Z,90.90
2017-10-05T06:47:59.846Z,90.90
2017-10-05T06:50:28.158Z,90.80
2017-10-05T06:52:57.229Z,90.70
2017-10-05T06:55:25.569Z,91.00
2017-10-05T06:57:53.867Z,90.60
2017-10-05T07:00:22.178Z,90.50
2017-10-05T07:02:50.518Z,90.30
2017-10-05T07:05:18.822Z,90.20
2017-10-05T07:07:47.131Z,90.10
2017-10-05T07:10:15.454Z,90.00
2017-10-05T07:12:43.842Z,90.00
2017-10-05T07:15:12.208Z,90.30
2017-10-05T07:17:40.542Z,89.80
2017-10-05T07:20:08.842Z,89.80
2017-10-05T07:22:37.915Z,90.30
2017-10-05T07:25:06.237Z,89.80
2017-10-05T07:27:34.624Z,89.80
2017-10-05T07:30:03.743Z,89.50
2017-10-05T07:32:32.066Z,89.50
2017-10-05T07:35:00.405Z,89.40
2017-10-05T07:37:28.707Z,89.10
2017-10-05T07:39:57.040Z,89.00
2017-10-05T07:42:26.138Z,88.60
2017-10-05T07:44:55.809Z,88.10
2017-10-05T07:47:24.146Z,88.00
2017-10-05T07:49:52.453Z,88.10
2017-10-05T07:52:20.776Z,88.40
2017-10-05T07:54:49.083Z,88.00
2017-10-05T07:57:17.410Z,88.10
2017-10-05T07:59:45.708Z,88.10
2017-10-05T08:02:14.021Z,87.20
2017-10-05T08:04:43.106Z,84.60
2017-10-05T08:07:11.418Z,84.60
2017-10-05T08:09:39.725Z,82.60
2017-10-05T08:12:08.063Z,81.10
2017-10-05T08:14:37.137Z,80.30
2017-10-05T08:17:06.207Z,78.10
2017-10-05T08:19:35.497Z,78.00
2017-10-05T08:22:04.646Z,78.50
2017-10-05T08:24:32.961Z,77.80
2017-10-05T08:27:01.269Z,77.50
2017-10-05T08:29:29.562Z,76.30
2017-10-05T08:31:57.888Z,76.30
2017-10-05T08:34:26.960Z,76.20
2017-10-05T08:36:55.265Z,75.50
2017-10-05T08:39:24.378Z,75.10
2017-10-05T08:41:52.686Z,75.00
2017-10-05T08:44:20.999Z,74.10
2017-10-05T08:46:49.306Z,73.90
2017-10-05T08:49:18.391Z,74.40
2017-10-05T08:51:47.475Z,74.50
2017-10-05T08:54:15.800Z,74.50
2017-10-05T08:56:44.117Z,74.80
2017-10-05T08:59:12.449Z,74.60
2017-10-05T09:01:41.554Z,74.30
2017-10-05T09:04:10.616Z,73.80
2017-10-05T09:06:38.956Z,73.80
2017-10-05T09:09:07.372Z,73.20
2017-10-05T09:11:35.752Z,72.70
2017-10-05T09:14:04.094Z,72.50
2017-10-05T09:16:32.414Z,72.20
2017-10-05T09:19:00.750Z,71.60
2017-10-05T09:21:29.049Z,71.60
2017-10-05T09:23:57.359Z,69.80
2017-10-05T09:26:25.810Z,69.30
2017-10-05T09:28:54.226Z,69.40
2017-10-05T09:31:22.541Z,69.80
2017-10-05T09:33:51.596Z,70.30
2017-10-05T09:36:19.921Z,70.30
2017-10-05T09:38:49.042Z,68.90
2017-10-05T09:41:17.386Z,68.80
2017-10-05T09:43:45.692Z,68.90
2017-10-05T09:46:14.748Z,68.80
2017-10-05T09:48:43.039Z,68.80
2017-10-05T09:51:11.349Z,68.80
2017-10-05T09:53:40.418Z,68.30
2017-10-05T09:56:09.038Z,68.10
2017-10-05T09:58:38.123Z,67.70
2017-10-05T10:01:07.189Z,67.10
2017-10-05T10:03:35.498Z,67.10
2017-10-05T10:06:04.565Z,66.90
2017-10-05T10:08:32.924Z,66.80
2017-10-05T10:11:01.220Z,65.60
2017-10-05T10:13:29.518Z,66.10
2017-10-05T10:15:57.831Z,66.00
2017-10-05T10:18:26.886Z,66.10
2017-10-05T10:20:55.205Z,66.10
2017-10-05T10:23:24.263Z,65.20
2017-10-05T10:25:52.555Z,65.20
2017-10-05T10:28:20.851Z,65.00
2017-10-05T10:30:49.155Z,64.50
2017-10-05T10:33:18.251Z,65.40
2017-10-05T10:35:47.411Z,64.50
2017-10-05T10:38:15.732Z,64.50
2017-10-05T10:40:44.856Z,62.90
2017-10-05T10:43:13.447Z,62.90
2017-10-05T10:45:41.777Z,62.50
2017-10-05T10:48:10.104Z,64.00
2017-10-05T10:50:38.429Z,64.10
2017-10-05T10:53:07.556Z,64.30
2017-10-05T10:55:36.639Z,65.30
2017-10-05T10:58:04.958Z,65.30
2017-10-05T11:00:33.269Z,66.40
2017-10-05T11:03:01.581Z,66.60
2017-10-05T11:05:29.875Z,66.80
2017-10-05T11:07:58.187Z,67.40
2017-10-05T11:10:26.491Z,68.00
2017-10-05T11:12:54.817Z,68.20
2017-10-05T11:15:23.888Z,67.70
2017-10-05T11:17:52.187Z,67.60
2017-10-05T11:20:20.515Z,67.80
2017-10-05T11:22:48.817Z,67.00
2017-10-05T11:25:17.142Z,66.30
2017-10-05T11:27:45.473Z,65.50
2017-10-05T11:30:13.811Z,64.90
2017-10-05T11:32:42.909Z,66.70
2017-10-05T11:35:11.985Z,68.90
2017-10-05T11:37:40.281Z,68.80
2017-10-05T11:40:09.355Z,70.40
2017-10-05T11:42:37.679Z,70.30
2017-10-05T11:45:05.993Z,70.50
2017-10-05T11:47:35.249Z,72.30
2017-10-05T11:50:04.311Z,71.20
2017-10-05T11:52:32.660Z,71.20
2017-10-05T11:55:00.971Z,71.00
2017-10-05T11:57:30.110Z,69.80
2017-10-05T11:59:59.235Z,68.90
2017-10-05T12:02:27.553Z,69.00
2017-10-05T12:04:55.899Z,68.30
2017-10-05T12:07:24.218Z,67.00
2017-10-05T12:09:52.588Z,65.80
2017-10-05T12:12:20.903Z,65.00
2017-10-05T12:14:48.488Z,63.30
2017-10-05T12:17:17.583Z,62.10
2017-10-05T12:19:46.683Z,61.80
2017-10-05T12:22:15.772Z,61.80
2017-10-05T12:24:44.106Z,61.70
2017-10-05T12:27:12.415Z,62.20
2017-10-05T12:29:40.702Z,61.50
2017-10-05T12:32:09.023Z,61.50
2017-10-05T12:34:37.336Z,59.90
2017-10-05T12:37:05.626Z,60.00
2017-10-05T12:39:33.950Z,60.00
2017-10-05T12:42:03.080Z,59.80
2017-10-05T12:44:31.399Z,59.90
2017-10-05T12:46:59.764Z,59.60
2017-10-05T12:49:28.066Z,59.50
2017-10-05T12:51:57.914Z,59.40
2017-10-05T12:54:26.985Z,60.00
2017-10-05T12:56:55.290Z,59.90
2017-10-05T12:59:24.375Z,60.20
2017-10-05T13:01:53.544Z,60.20
2017-10-05T13:04:21.930Z,60.20
2017-10-05T13:06:50.265Z,61.30
2017-10-05T13:09:18.584Z,60.00
2017-10-05T13:11:46.884Z,59.40
2017-10-05T13:14:15.182Z,59.50
2017-10-05T13:16:43.496Z,59.30
2017-10-05T13:19:11.824Z,59.10
2017-10-05T13:21:40.119Z,58.70
2017-10-05T13:24:08.425Z,59.00
2017-10-05T13:26:37.492Z,59.90
2017-10-05T13:29:05.899Z,59.80
2017-10-05T13:31:34.966Z,65.70
2017-10-05T13:34:03.299Z,65.70
2017-10-05T13:36:31.722Z,64.60
2017-10-05T13:39:00.064Z,63.60
2017-10-05T13:41:28.388Z,62.10
2017-10-05T13:43:56.706Z,61.90
2017-10-05T13:46:25.964Z,63.70
2017-10-05T13:48:54.347Z,63.70
2017-10-05T13:51:22.666Z,64.00
2017-10-05T13:53:51.728Z,64.60
2017-10-05T13:56:20.056Z,64.60
2017-10-05T13:58:49.142Z,65.40
2017-10-05T14:01:18.220Z,66.10
2017-10-05T14:03:46.596Z,66.10
2017-10-05T14:06:14.968Z,66.50
2017-10-05T14:08:43.294Z,66.40
2017-10-05T14:11:12.387Z,66.20
2017-10-05T14:13:40.699Z,66.00
2017-10-05T14:16:09.006Z,66.00
2017-10-05T14:18:37.338Z,65.40
2017-10-05T14:21:06.403Z,64.40
2017-10-05T14:23:34.740Z,64.30
2017-10-05T14:26:03.114Z,62.90
2017-10-05T14:28:31.484Z,61.80
2017-10-05T14:30:59.819Z,61.70
2017-10-05T14:33:28.126Z,61.60
2017-10-05T14:35:56.420Z,61.10
2017-10-05T14:38:25.627Z,59.50
2017-10-05T14:40:54.699Z,60.00
2017-10-05T14:43:22.992Z,60.00
2017-10-05T14:45:51.318Z,59.30
2017-10-05T14:48:19.619Z,59.40
2017-10-05T14:50:47.974Z,59.20
2017-10-05T14:53:16.286Z,59.50
2017-10-05T14:55:44.587Z,59.80
2017-10-05T14:58:12.892Z,60.40
2017-10-05T15:00:41.966Z,60.00
2017-10-05T15:03:10.310Z,60.70
2017-10-05T15:05:38.629Z,59.70
2017-10-05T15:08:06.932Z,60.00
2017-10-05T15:10:36.023Z,64.00
2017-10-05T15:13:05.157Z,65.40
2017-10-05T15:15:33.488Z,65.40
2017-10-05T15:18:01.790Z,66.00
2017-10-05T15:20:30.860Z,68.40
2017-10-05T15:22:59.185Z,68.00
2017-10-05T15:25:27.500Z,68.50
2017-10-05T15:27:55.838Z,68.50
2017-10-05T15:30:24.918Z,67.80
2017-10-05T15:32:54.024Z,67.90
2017-10-05T15:35:22.390Z,67.90
2017-10-05T15:37:50.685Z,68.10
2017-10-05T15:40:19.803Z,68.00
2017-10-05T15:42:49.010Z,67.60
2017-10-05T15:45:17.324Z,67.60
2017-10-05T15:47:45.698Z,67.30
2017-10-05T15:50:14.010Z,67.10
2017-10-05T15:52:42.322Z,66.80
2017-10-05T15:55:11.444Z,66.00
2017-10-05T15:57:39.768Z,66.00
2017-10-05T16:00:08.092Z,65.90
2017-10-05T16:02:36.395Z,65.80
2017-10-05T16:05:04.736Z,65.60
2017-10-05T16:07:33.044Z,65.60
2017-10-05T16:10:01.376Z,65.50
2017-10-05T16:12:29.694Z,64.60
2017-10-05T16:14:58.816Z,63.20
2017-10-05T16:17:27.124Z,63.10
2017-10-05T16:19:55.412Z,62.80
2017-10-05T16:22:23.724Z,61.60
2017-10-05T16:24:52.173Z,61.40
2017-10-05T16:27:20.491Z,60.60
2017-10-05T16:29:49.601Z,60.90
2017-10-05T16:32:18.692Z,60.50
2017-10-05T16:34:47.768Z,60.50
2017-10-05T16:37:16.076Z,60.50
2017-10-05T16:39:45.158Z,61.10
2017-10-05T16:42:13.444Z,61.00
2017-10-05T16:44:41.770Z,61.40
2017-10-05T16:47:10.077Z,61.20
2017-10-05T16:49:38.418Z,60.90
2017-10-05T16:52:06.737Z,60.40
2017-10-05T16:54:35.028Z,60.60
2017-10-05T16:57:03.367Z,61.00
2017-10-05T16:59:31.765Z,61.20
2017-10-05T17:02:00.063Z,61.30
2017-10-05T17:04:29.141Z,61.60
2017-10-05T17:06:57.475Z,61.70
2017-10-05T17:09:25.772Z,61.40
2017-10-05T17:11:54.846Z,60.40
2017-10-05T17:14:23.142Z,60.40
2017-10-05T17:16:52.197Z,60.40
2017-10-05T17:19:20.524Z,60.40
2017-10-05T17:21:49.578Z,60.60
2017-10-05T17:24:17.878Z,60.60
2017-10-05T17:26:46.967Z,60.20
2017-10-05T17:29:15.281Z,59.70
2017-10-05T17:31:44.373Z,59.30
2017-10-05T17:34:12.712Z,59.30
2017-10-05T17:36:41.025Z,59.60
2017-10-05T17:39:09.356Z,59.70
2017-10-05T17:41:37.658Z,59.50
2017-10-05T17:44:05.958Z,59.50
2017-10-05T17:46:34.296Z,59.50
2017-10-05T17:49:02.595Z,59.40
2017-10-05T17:51:31.025Z,59.60
2017-10-05T17:54:00.104Z,59.60
2017-10-05T17:56:28.427Z,59.60
2017-10-05T17:58:56.765Z,59.70
2017-10-05T18:01:25.067Z,59.30
2017-10-05T18:03:54.169Z,59.10
2017-10-05T18:06:23.227Z,58.90
2017-10-05T18:08:51.526Z,58.80
2017-10-05T18:11:19.838Z,58.60
2017-10-05T18:13:48.901Z,57.90
2017-10-05T18:16:17.312Z,57.90
2017-10-05T18:18:46.385Z,58.00
2017-10-05T18:21:14.683Z,57.90
2017-10-05T18:23:42.981Z,57.80
2017-10-05T18:26:11.316Z,57.80
2017-10-05T18:28:39.660Z,57.40
2017-10-05T18:31:07.960Z,57.50
2017-10-05T18:33:36.363Z,57.40
2017-10-05T18:36:04.660Z,57.60
2017-10-05T18:38:33.000Z,57.30
2017-10-05T18:41:01.316Z,57.50
2017-10-05T18:43:29.660Z,57.40
2017-10-05T18:45:58.207Z,57.20
2017-10-05T18:48:27.270Z,57.30
2017-10-05T18:50:55.566Z,57.30
2017-10-05T18:53:23.863Z,57.20
2017-10-05T18:55:52.952Z,56.90
2017-10-05T18:58:22.031Z,57.20
2017-10-05T19:00:50.335Z,57.20
2017-10-05T19:03:19.471Z,57.50
2017-10-05T19:05:47.764Z,57.50
2017-10-05T19:08:16.076Z,58.00
2017-10-05T19:10:44.393Z,57.90
2017-10-05T19:13:12.723Z,57.90
2017-10-05T19:15:41.028Z,57.90
2017-10-05T19:18:10.115Z,58.00
2017-10-05T19:20:38.413Z,57.80
2017-10-05T19:23:06.703Z,57.60
2017-10-05T19:25:35.779Z,56.20
2017-10-05T19:28:04.097Z,56.20
2017-10-05T19:30:33.185Z,56.40
2017-10-05T19:33:02.281Z,56.40
2017-10-05T19:35:31.366Z,56.40
2017-10-05T19:37:59.722Z,56.40
2017-10-05T19:40:28.037Z,56.50
2017-10-05T19:42:56.353Z,56.40
2017-10-05T19:45:24.652Z,56.40
2017-10-05T19:47:53.018Z,56.40
2017-10-05T19:50:21.321Z,56.40
2017-10-05T19:52:49.615Z,56.90
2017-10-05T19:55:17.928Z,57.00
2017-10-05T19:57:47.003Z,56.80
2017-10-05T20:00:15.321Z,56.80
2017-10-05T20:02:44.384Z,56.80
2017-10-05T20:05:12.700Z,56.70
2017-10-05T20:07:41.789Z,56.90
2017-10-05T20:10:10.883Z,56.60
2017-10-05T20:12:39.978Z,56.60
2017-10-05T20:15:08.322Z,56.60
2017-10-05T20:17:41.002Z,56.10
2017-10-05T20:26:25.021Z,56.10
2017-10-05T20:32:00.330Z,56.20
2017-10-05T20:34:28.656Z,56.10
2017-10-05T20:36:56.968Z,56.60
2017-10-05T20:39:25.343Z,56.80
2017-10-05T20:41:54.476Z,57.20
2017-10-05T20:44:22.904Z,57.10
2017-10-05T20:46:51.220Z,57.80
2017-10-05T20:49:19.526Z,57.40
2017-10-05T20:51:48.599Z,57.70
2017-10-05T20:54:16.918Z,57.60
2017-10-05T20:56:45.215Z,57.60
2017-10-05T20:59:13.518Z,57.60
2017-10-05T21:01:41.821Z,57.40
2017-10-05T21:04:10.121Z,57.10
2017-10-05T21:06:38.429Z,57.20
2017-10-05T21:09:06.782Z,57.20
2017-10-05T21:11:35.124Z,57.50
2017-10-05T21:14:03.448Z,57.60
2017-10-05T21:16:32.520Z,57.80
2017-10-05T21:19:00.830Z,57.80
2017-10-05T21:21:29.940Z,57.90
2017-10-05T21:23:59.055Z,58.00
2017-10-05T21:26:27.364Z,58.00
2017-10-05T21:28:55.698Z,58.10
2017-10-05T21:31:24.836Z,58.30
2017-10-05T21:33:53.132Z,58.30
2017-10-05T21:36:21.465Z,58.30
2017-10-05T21:38:50.568Z,57.90
2017-10-05T21:41:18.899Z,58.00
2017-10-05T21:43:47.243Z,57.80
2017-10-05T21:46:15.580Z,58.70
2017-10-05T21:48:43.945Z,58.20
2017-10-05T21:51:12.245Z,58.10
2017-10-05T21:53:40.624Z,57.80
2017-10-05T21:56:08.931Z,57.80
2017-10-05T21:58:38.085Z,57.60
2017-10-05T22:01:06.547Z,57.60
2017-10-05T22:03:35.011Z,57.60
2017-10-05T22:06:03.380Z,57.80
2017-10-05T22:08:32.596Z,57.90
2017-10-05T22:11:00.965Z,57.90
2017-10-05T22:13:30.088Z,58.10
2017-10-05T22:15:58.474Z,58.10
2017-10-05T22:18:26.828Z,57.70
2017-10-05T22:20:55.947Z,57.90
2017-10-05T22:23:24.317Z,57.90
2017-10-05T22:25:52.715Z,57.80
2017-10-05T22:28:21.104Z,57.60
2017-10-05T22:30:49.467Z,57.30
2017-10-05T22:33:18.606Z,56.90
2017-10-05T22:35:46.993Z,56.90
2017-10-05T22:38:15.345Z,56.90
2017-10-05T22:40:43.720Z,56.90
2017-10-05T22:43:12.126Z,56.90
2017-10-05T22:45:40.609Z,56.90
2017-10-05T22:48:08.996Z,56.80
2017-10-05T22:50:37.398Z,56.80
2017-10-05T22:53:05.876Z,56.90
2017-10-05T22:55:34.282Z,57.00
2017-10-05T22:58:02.710Z,56.70
2017-10-05T23:00:31.079Z,56.60
2017-10-05T23:02:59.443Z,57.10
2017-10-05T23:05:28.583Z,60.70
2017-10-05T23:07:56.933Z,60.70
2017-10-05T23:10:26.054Z,65.50
2017-10-05T23:12:55.076Z,65.50
2017-10-05T23:15:23.649Z,66.20
2017-10-05T23:17:52.032Z,67.60
2017-10-05T23:20:20.398Z,68.40
2017-10-05T23:22:48.783Z,69.00
2017-10-05T23:25:17.210Z,69.70
2017-10-05T23:27:45.571Z,70.00
2017-10-05T23:30:13.928Z,70.80
2017-10-05T23:32:42.308Z,71.00
2017-10-05T23:35:10.688Z,71.00
2017-10-05T23:37:39.812Z,70.70
2017-10-05T23:40:08.163Z,70.70
2017-10-05T23:42:37.288Z,70.40
2017-10-05T23:45:05.760Z,70.40
2017-10-05T23:47:34.991Z,70.00
2017-10-05T23:50:03.424Z,70.70
2017-10-05T23:52:32.561Z,69.80
2017-10-05T23:55:00.938Z,69.80
2017-10-05T23:57:29.324Z,69.50
2017-10-05T23:59:57.675Z,69.20
